Anzali, Iran

4:26 PM IRDT on July 28, 2014 (GMT +0430)
Rasht (OIGG) Elev -30 ft | 37.33 °N, 49.61 °E | Change Station

Current weather conditions updated 26 minutes ago

Scattered Clouds
Scattered Clouds
84 °F
Feels Like 88 °F
N
12
Wind Variable Wind from North

Tomorrow is forecast to be nearly the same temperature as today.

Today
High -- | Low -- °F
--% Chance of Precip.
Yesterday
High -- | Low -- °F
Precip. -- in
6:12 AM 8:24 PM
New Moon, 2% visible
Pressure 29.89 in
Visibility 6.2 miles
Clouds Few 2000 ft
Scattered Clouds 9000 ft
Heat Index 88 °F
Dew Point 70 °F
Humidity 62%
Rainfall 0.00 in
Snow Depth Not available.
UV 6 out of 12
Pollen Not available.
Air Quality Not available.
Flu Activity Not available.
METAR OIGG 281130Z 36010KT 9999 FEW020 SCT090 29/21 Q1012

More Conditions Fewer Conditions

Pressure 29.89 in
Visibility 6.2 miles
Clouds Few 2000 ft
Scattered Clouds 9000 ft
Heat Index 88 °F
Dew Point 70 °F
Humidity 62%
Rainfall 0.00 in
Snow Depth Not available.
UV 6 out of 12
Pollen Not available.
Air Quality Not available.
Flu Activity Not available.
METAR OIGG 281130Z 36010KT 9999 FEW020 SCT090 29/21 Q1012

More Conditions Fewer Conditions

10-Day Weather Forecast

Almanac

Astronomy

Jul. 28, 2014 Rise Set
Actual Time 6:12 AM IRDT 8:24 PM IRDT
Civil Twilight 5:43 AM IRDT 8:53 PM IRDT
Nautical Twilight 5:07 AM IRDT 9:29 PM IRDT
Astronomical Twilight 4:28 AM IRDT 10:07 PM IRDT
Moon 7:30 AM IRDT 8:56 PM IRDT
Length of Visible Light 15h 09m
Length of Day
14h 11m
Tomorrow will be 1m 41s shorter.
New Moon, 2% of the Moon is Illuminated
Today
New Moon
Aug 3
First Quarter
Aug 10
Full
Aug 17
Last Quarter
Aug 25
New

Yesterday's Extremes

Country Highs Country Lows

Community

WunderPhotos

Upload Photos

1,738,304 photos uploaded!

Nearby

Snow Depth

Not available.

Earthquake Activity

City Distance Mag. Time & Date
No recent earthquake activity has been reported nearby.
Minimum magnitude displayed is 2.5.

Coastal Water Temperatures

Place Temperature
No Stations Reporting

Nearby Weather Stations

There are no personal weather stations in this area.